createdAt,value
2017-12-05T00:01:08.687Z,5.20
2017-12-05T00:03:36.115Z,5.10
2017-12-05T00:06:04.316Z,5.10
2017-12-05T00:08:31.747Z,5.10
2017-12-05T00:10:59.949Z,5.10
2017-12-05T00:13:27.377Z,5.00
2017-12-05T00:15:54.882Z,5.10
2017-12-05T00:18:22.330Z,5.10
2017-12-05T00:20:49.778Z,5.10
2017-12-05T00:23:17.244Z,5.00
2017-12-05T00:25:44.663Z,5.10
2017-12-05T00:28:12.862Z,5.20
2017-12-05T00:30:40.291Z,5.10
2017-12-05T00:33:08.483Z,5.10
2017-12-05T00:35:35.973Z,5.10
2017-12-05T00:38:03.473Z,5.10
2017-12-05T00:40:31.690Z,5.20
2017-12-05T00:42:59.122Z,5.20
2017-12-05T00:45:26.606Z,5.10
2017-12-05T00:47:54.044Z,5.10
2017-12-05T00:50:21.532Z,5.00
2017-12-05T00:52:48.971Z,5.00
2017-12-05T00:55:16.435Z,5.00
2017-12-05T00:57:43.895Z,5.10
2017-12-05T01:00:11.351Z,5.10
2017-12-05T01:02:38.784Z,5.20
2017-12-05T01:05:06.211Z,5.20
2017-12-05T01:07:34.410Z,5.20
2017-12-05T01:10:01.834Z,5.20
2017-12-05T01:12:30.039Z,5.30
2017-12-05T01:14:57.518Z,5.30
2017-12-05T01:17:24.982Z,5.30
2017-12-05T01:19:52.414Z,5.30
2017-12-05T01:22:20.263Z,5.30
2017-12-05T01:24:47.690Z,5.30
2017-12-05T01:27:15.214Z,5.30
2017-12-05T01:29:42.652Z,5.30
2017-12-05T01:32:10.126Z,5.30
2017-12-05T01:34:37.557Z,5.40
2017-12-05T01:37:04.995Z,5.40
2017-12-05T01:39:33.191Z,5.30
2017-12-05T01:42:00.670Z,5.30
2017-12-05T01:44:28.115Z,5.30
2017-12-05T01:46:55.555Z,5.30
2017-12-05T01:49:22.978Z,5.30
2017-12-05T01:51:51.182Z,5.30
2017-12-05T01:54:18.618Z,5.30
2017-12-05T01:56:46.810Z,5.30
2017-12-05T01:59:14.249Z,5.30
2017-12-05T02:01:42.439Z,5.30
2017-12-05T02:04:09.879Z,5.30
2017-12-05T02:06:38.102Z,5.20
2017-12-05T02:09:05.645Z,5.20
2017-12-05T02:11:33.063Z,5.20
2017-12-05T02:14:01.259Z,5.20
2017-12-05T02:16:28.690Z,5.20
2017-12-05T02:18:56.890Z,5.10
2017-12-05T02:21:24.614Z,5.20
2017-12-05T02:23:52.055Z,5.10
2017-12-05T02:26:19.488Z,5.10
2017-12-05T02:28:46.923Z,5.00
2017-12-05T02:31:14.350Z,5.10
2017-12-05T02:33:42.579Z,5.00
2017-12-05T02:36:10.014Z,5.00
2017-12-05T02:38:37.450Z,5.00
2017-12-05T02:41:09.602Z,5.00
2017-12-05T02:43:37.837Z,5.00
2017-12-05T02:46:05.265Z,5.00
2017-12-05T02:48:32.701Z,5.00
2017-12-05T02:51:00.923Z,5.00
2017-12-05T02:53:28.802Z,4.90
2017-12-05T02:55:56.231Z,5.00
2017-12-05T02:58:23.674Z,5.00
2017-12-05T03:00:51.122Z,5.00
2017-12-05T03:03:18.562Z,5.00
2017-12-05T03:05:46.754Z,5.00
2017-12-05T03:08:14.199Z,5.00
2017-12-05T03:10:42.418Z,5.10
2017-12-05T03:13:09.846Z,5.10
2017-12-05T03:15:37.338Z,5.20
2017-12-05T03:18:04.767Z,5.20
2017-12-05T03:20:32.209Z,5.20
2017-12-05T03:22:59.634Z,5.30
2017-12-05T03:25:27.076Z,5.30
2017-12-05T03:27:55.319Z,5.40
2017-12-05T03:30:22.751Z,5.40
2017-12-05T03:32:50.180Z,5.40
2017-12-05T03:35:20.554Z,5.50
2017-12-05T03:37:47.981Z,5.50
2017-12-05T03:40:16.191Z,5.50
2017-12-05T03:42:43.615Z,5.50
2017-12-05T03:45:11.050Z,5.50
2017-12-05T03:47:38.474Z,5.50
2017-12-05T03:50:05.910Z,5.50
2017-12-05T03:52:33.347Z,5.50
2017-12-05T03:55:00.783Z,5.50
2017-12-05T03:57:29.010Z,5.50
2017-12-05T03:59:56.438Z,5.50
2017-12-05T04:02:23.867Z,5.50
2017-12-05T04:04:52.070Z,5.40
2017-12-05T04:07:19.501Z,5.40
2017-12-05T04:09:47.703Z,5.40
2017-12-05T04:12:15.130Z,5.40
2017-12-05T04:14:43.337Z,5.30
2017-12-05T04:17:10.774Z,5.30
2017-12-05T04:19:38.210Z,5.40
2017-12-05T04:22:06.406Z,5.30
2017-12-05T04:24:33.860Z,5.30
2017-12-05T04:27:02.051Z,5.40
2017-12-05T04:29:29.483Z,5.40
2017-12-05T04:31:57.679Z,5.40
2017-12-05T04:34:25.106Z,5.40
2017-12-05T04:36:53.331Z,5.40
2017-12-05T04:39:21.123Z,5.40
2017-12-05T04:41:48.567Z,5.30
2017-12-05T04:44:15.998Z,5.40
2017-12-05T04:46:43.434Z,5.30
2017-12-05T04:49:10.863Z,5.00
2017-12-05T04:51:39.095Z,4.80
2017-12-05T04:54:06.523Z,4.80
2017-12-05T04:56:34.011Z,4.60
2017-12-05T04:59:01.443Z,4.60
2017-12-05T05:01:28.923Z,4.60
2017-12-05T05:03:56.350Z,4.60
2017-12-05T05:06:23.783Z,4.50
2017-12-05T05:08:52.010Z,4.60
2017-12-05T05:11:19.446Z,4.50
2017-12-05T05:13:46.878Z,4.50
2017-12-05T05:16:14.318Z,4.60
2017-12-05T05:18:42.519Z,4.60
2017-12-05T05:21:09.950Z,4.60
2017-12-05T05:23:38.155Z,4.60
2017-12-05T05:26:05.581Z,4.60
2017-12-05T05:28:33.783Z,4.60
2017-12-05T05:31:01.358Z,4.60
2017-12-05T05:33:28.786Z,4.50
2017-12-05T05:35:56.223Z,4.60
2017-12-05T05:38:24.423Z,4.50
2017-12-05T05:40:52.674Z,4.50
2017-12-05T05:43:20.867Z,4.50
2017-12-05T05:45:48.303Z,4.50
2017-12-05T05:48:16.502Z,4.50
2017-12-05T05:50:44.643Z,4.40
2017-12-05T05:53:12.082Z,4.50
2017-12-05T05:55:41.015Z,4.20
2017-12-05T05:58:08.450Z,4.20
2017-12-05T06:00:35.879Z,4.30
2017-12-05T06:03:03.310Z,4.30
2017-12-05T06:05:30.786Z,4.30
2017-12-05T06:07:58.433Z,4.30
2017-12-05T06:10:25.871Z,4.10
2017-12-05T06:12:54.071Z,4.10
2017-12-05T06:15:21.499Z,3.90
2017-12-05T06:17:48.930Z,4.00
2017-12-05T06:20:17.126Z,4.10
2017-12-05T06:22:44.570Z,4.00
2017-12-05T06:25:13.175Z,3.90
2017-12-05T06:27:40.626Z,3.90
2017-12-05T06:30:08.110Z,3.80
2017-12-05T06:32:35.575Z,3.90
2017-12-05T06:35:03.006Z,4.00
2017-12-05T06:37:30.443Z,4.00
2017-12-05T06:39:57.874Z,4.10
2017-12-05T06:42:26.083Z,4.10
2017-12-05T06:44:53.875Z,4.10
2017-12-05T06:47:21.312Z,4.10
2017-12-05T06:49:49.289Z,4.10
2017-12-05T06:52:16.726Z,4.20
2017-12-05T06:54:44.159Z,4.20
2017-12-05T06:57:12.354Z,4.20
2017-12-05T06:59:39.791Z,4.20
2017-12-05T07:02:07.979Z,4.00
2017-12-05T07:04:35.423Z,4.00
2017-12-05T07:07:03.614Z,4.00
2017-12-05T07:09:31.059Z,4.00
2017-12-05T07:11:59.260Z,4.00
2017-12-05T07:14:26.708Z,4.00
2017-12-05T07:16:54.139Z,4.10
2017-12-05T07:19:22.367Z,3.80
2017-12-05T07:21:49.820Z,3.80
2017-12-05T07:24:17.262Z,3.90
2017-12-05T07:26:44.702Z,4.00
2017-12-05T07:29:12.146Z,4.20
2017-12-05T07:31:40.470Z,4.20
2017-12-05T07:34:08.236Z,4.30
2017-12-05T07:36:35.667Z,4.30
2017-12-05T07:39:03.114Z,4.30
2017-12-05T07:41:30.539Z,4.40
2017-12-05T07:43:58.771Z,4.50
2017-12-05T07:46:26.227Z,4.50
2017-12-05T07:48:53.675Z,4.40
2017-12-05T07:51:21.111Z,4.30
2017-12-05T07:53:48.542Z,4.30
2017-12-05T07:56:16.738Z,4.40
2017-12-05T07:58:44.184Z,4.30
2017-12-05T08:01:12.387Z,4.50
2017-12-05T08:03:39.820Z,4.40
2017-12-05T08:06:08.003Z,4.40
2017-12-05T08:08:35.438Z,4.30
2017-12-05T08:11:03.642Z,4.30
2017-12-05T08:13:31.130Z,4.40
2017-12-05T08:15:58.546Z,4.40
2017-12-05T08:18:25.986Z,4.20
2017-12-05T08:20:53.440Z,4.20
2017-12-05T08:23:21.654Z,4.50
2017-12-05T08:26:03.999Z,4.50
2017-12-05T08:28:31.438Z,4.60
2017-12-05T08:31:00.395Z,4.80
2017-12-05T08:33:27.834Z,4.80
2017-12-05T08:35:55.371Z,4.90
2017-12-05T08:38:23.574Z,4.80
2017-12-05T08:40:51.026Z,4.80
2017-12-05T08:43:19.363Z,4.70
2017-12-05T08:45:48.298Z,4.80
2017-12-05T08:48:15.739Z,4.80
2017-12-05T08:50:43.956Z,5.00
2017-12-05T08:53:11.391Z,5.00
2017-12-05T08:55:38.839Z,5.20
2017-12-05T08:58:06.281Z,5.20
2017-12-05T09:00:34.486Z,5.30
2017-12-05T09:03:01.963Z,5.30
2017-12-05T09:05:29.409Z,5.40
2017-12-05T09:07:56.876Z,5.40
2017-12-05T09:10:24.343Z,5.50
2017-12-05T09:12:51.787Z,5.60
2017-12-05T09:15:19.241Z,5.50
2017-12-05T09:17:46.828Z,5.40
2017-12-05T09:20:15.031Z,5.30
2017-12-05T09:22:42.471Z,5.30
2017-12-05T09:25:10.675Z,5.60
2017-12-05T09:27:38.164Z,5.60
2017-12-05T09:30:05.611Z,5.60
2017-12-05T09:32:33.059Z,5.70
2017-12-05T09:35:00.507Z,5.70
2017-12-05T09:37:27.992Z,5.80
2017-12-05T09:39:55.424Z,5.80
2017-12-05T09:42:22.867Z,5.90
2017-12-05T09:44:50.304Z,5.90
2017-12-05T09:47:18.519Z,5.80
2017-12-05T09:49:45.959Z,5.80
2017-12-05T09:52:13.406Z,5.70
2017-12-05T09:54:40.841Z,5.70
2017-12-05T09:57:09.079Z,5.70
2017-12-05T09:59:36.532Z,5.70
2017-12-05T10:02:03.967Z,5.70
2017-12-05T10:04:31.406Z,5.70
2017-12-05T10:06:58.851Z,5.80
2017-12-05T10:09:27.047Z,5.80
2017-12-05T10:11:54.487Z,5.80
2017-12-05T10:14:21.987Z,5.90
2017-12-05T10:16:49.426Z,5.90
2017-12-05T10:19:16.855Z,5.90
2017-12-05T10:21:45.080Z,5.80
2017-12-05T10:24:12.487Z,5.80
2017-12-05T10:26:40.686Z,5.80
2017-12-05T10:29:08.623Z,5.80
2017-12-05T10:31:36.843Z,5.80
2017-12-05T10:34:04.271Z,5.80
2017-12-05T10:36:31.711Z,5.80
2017-12-05T10:38:59.911Z,5.80
2017-12-05T10:41:27.346Z,5.70
2017-12-05T10:43:54.855Z,5.70
2017-12-05T10:46:22.397Z,5.80
2017-12-05T10:48:49.833Z,5.80
2017-12-05T10:51:17.267Z,5.80
2017-12-05T10:53:45.470Z,5.70
2017-12-05T10:56:12.902Z,5.70
2017-12-05T10:58:40.344Z,5.70
2017-12-05T11:01:09.133Z,5.60
2017-12-05T11:03:36.647Z,5.60
2017-12-05T11:06:04.103Z,5.40
2017-12-05T11:08:31.543Z,5.40
2017-12-05T11:10:58.978Z,5.40
2017-12-05T11:13:26.418Z,5.40
2017-12-05T11:15:54.619Z,5.30
2017-12-05T11:18:22.063Z,5.30
2017-12-05T11:20:49.498Z,5.20
2017-12-05T11:23:17.715Z,5.30
2017-12-05T11:25:45.147Z,5.30
2017-12-05T11:28:13.351Z,5.40
2017-12-05T11:30:40.778Z,5.40
2017-12-05T11:33:08.215Z,5.30
2017-12-05T11:35:36.420Z,5.40
2017-12-05T11:38:03.854Z,5.40
2017-12-05T11:40:32.051Z,5.50
2017-12-05T11:42:59.483Z,5.50
2017-12-05T11:45:27.691Z,5.70
2017-12-05T11:47:55.131Z,5.70
2017-12-05T11:50:22.564Z,5.80
2017-12-05T11:52:50.771Z,5.90
2017-12-05T11:55:18.203Z,6.00
2017-12-05T11:57:46.403Z,6.00
2017-12-05T12:00:13.831Z,6.00
2017-12-05T12:02:42.039Z,5.90
2017-12-05T12:05:09.471Z,5.90
2017-12-05T12:07:37.687Z,5.90
2017-12-05T12:10:05.124Z,5.90
2017-12-05T12:12:32.611Z,5.90
2017-12-05T12:15:00.035Z,6.00
2017-12-05T12:17:27.516Z,6.00
2017-12-05T12:19:54.947Z,5.90
2017-12-05T12:22:22.383Z,5.90
2017-12-05T12:24:50.590Z,5.90
2017-12-05T12:27:18.058Z,5.90
2017-12-05T12:29:45.498Z,6.00
2017-12-05T12:32:12.987Z,6.00
2017-12-05T12:34:40.423Z,6.00
2017-12-05T12:37:07.855Z,6.00
2017-12-05T12:39:35.295Z,6.00
2017-12-05T12:42:03.503Z,6.00
2017-12-05T12:44:30.939Z,6.00
2017-12-05T12:46:58.376Z,6.00
2017-12-05T12:49:26.584Z,6.10
2017-12-05T12:51:54.031Z,6.10
2017-12-05T12:54:21.471Z,6.10
2017-12-05T12:56:48.914Z,6.20
2017-12-05T12:59:17.123Z,6.20
2017-12-05T13:01:44.554Z,6.20
2017-12-05T13:04:11.998Z,6.30
2017-12-05T13:06:40.207Z,6.30
2017-12-05T13:09:07.651Z,6.30
2017-12-05T13:11:35.082Z,6.30
2017-12-05T13:14:03.283Z,6.40
2017-12-05T13:16:30.723Z,6.30
2017-12-05T13:18:58.943Z,6.30
2017-12-05T13:21:26.376Z,6.30
2017-12-05T13:23:53.811Z,6.30
2017-12-05T13:26:22.010Z,6.40
2017-12-05T13:28:49.443Z,6.40
2017-12-05T13:31:16.879Z,6.40
2017-12-05T13:33:44.311Z,6.50
2017-12-05T13:36:11.752Z,6.40
2017-12-05T13:38:39.189Z,6.40
2017-12-05T13:41:06.628Z,6.40
2017-12-05T13:43:34.067Z,6.30
2017-12-05T13:46:02.280Z,6.20
2017-12-05T13:48:29.712Z,6.20
2017-12-05T13:50:57.151Z,6.20
2017-12-05T13:53:25.346Z,6.20
2017-12-05T13:55:52.790Z,6.20
2017-12-05T13:58:20.982Z,6.20
2017-12-05T14:00:48.450Z,6.20
2017-12-05T14:03:15.867Z,6.20
2017-12-05T14:05:44.076Z,6.20
2017-12-05T14:08:11.511Z,6.20
2017-12-05T14:10:39.710Z,6.20
2017-12-05T14:13:07.148Z,6.20
2017-12-05T14:15:34.583Z,6.20
2017-12-05T14:18:02.784Z,6.30
2017-12-05T14:20:30.223Z,6.30
2017-12-05T14:22:58.427Z,6.40
2017-12-05T14:25:25.863Z,6.40
2017-12-05T14:27:53.304Z,6.40
2017-12-05T14:30:21.521Z,6.40
2017-12-05T14:32:48.947Z,6.40
2017-12-05T14:35:16.383Z,6.50
2017-12-05T14:37:44.587Z,6.50
2017-12-05T14:40:12.024Z,6.50
2017-12-05T14:42:40.223Z,6.40
2017-12-05T14:45:07.654Z,6.40
2017-12-05T14:47:35.855Z,6.40
2017-12-05T14:50:03.284Z,6.40
2017-12-05T14:52:31.496Z,6.40
2017-12-05T14:54:58.945Z,6.40
2017-12-05T14:57:26.395Z,6.50
2017-12-05T14:59:53.819Z,6.50
2017-12-05T15:02:22.022Z,6.50
2017-12-05T15:04:49.446Z,6.50
2017-12-05T15:07:17.655Z,6.40
2017-12-05T15:09:45.084Z,6.40
2017-12-05T15:12:13.291Z,6.30
2017-12-05T15:14:40.724Z,6.30
2017-12-05T15:17:08.920Z,6.30
2017-12-05T15:19:36.347Z,6.30
2017-12-05T15:22:04.563Z,6.30
2017-12-05T15:24:31.994Z,6.30
2017-12-05T15:26:59.431Z,6.30
2017-12-05T15:29:27.645Z,6.20
2017-12-05T15:31:55.087Z,6.20
2017-12-05T15:34:22.521Z,6.20
2017-12-05T15:36:50.724Z,6.20
2017-12-05T15:39:18.160Z,6.20
2017-12-05T15:41:45.652Z,6.20
2017-12-05T15:44:13.807Z,6.10
2017-12-05T15:46:41.247Z,6.10
2017-12-05T15:49:08.698Z,6.10
2017-12-05T15:51:36.899Z,6.00
2017-12-05T15:54:04.339Z,6.00
2017-12-05T15:56:31.775Z,6.10
2017-12-05T15:58:59.987Z,6.00
2017-12-05T16:01:27.428Z,6.00
2017-12-05T16:03:54.897Z,6.00
2017-12-05T16:06:22.603Z,6.00
2017-12-05T16:08:50.039Z,6.00
2017-12-05T16:11:17.480Z,6.10
2017-12-05T16:13:44.948Z,6.10
2017-12-05T16:16:12.384Z,6.10
2017-12-05T16:18:39.864Z,6.00
2017-12-05T16:21:07.319Z,6.00
2017-12-05T16:23:34.780Z,6.00
2017-12-05T16:26:02.217Z,6.00
2017-12-05T16:28:29.655Z,6.00
2017-12-05T16:30:57.090Z,6.10
2017-12-05T16:33:25.296Z,6.10
2017-12-05T16:35:52.730Z,6.10
2017-12-05T16:38:20.171Z,6.10
2017-12-05T16:40:48.407Z,6.10
2017-12-05T16:43:15.850Z,6.10
2017-12-05T16:45:43.328Z,6.20
2017-12-05T16:48:10.775Z,6.20
2017-12-05T16:50:38.236Z,6.20
2017-12-05T16:53:05.670Z,6.10
2017-12-05T16:55:33.111Z,6.10
2017-12-05T16:58:00.603Z,6.20
2017-12-05T17:00:28.039Z,6.10
2017-12-05T17:02:55.497Z,6.10
2017-12-05T17:05:22.950Z,6.00
2017-12-05T17:07:50.372Z,6.00
2017-12-05T17:10:18.647Z,5.90
2017-12-05T17:12:46.880Z,6.00
2017-12-05T17:15:14.319Z,5.90
2017-12-05T17:17:41.751Z,6.00
2017-12-05T17:20:09.179Z,5.90
2017-12-05T17:22:37.383Z,5.80
2017-12-05T17:25:04.827Z,5.80
2017-12-05T17:27:33.027Z,5.80
2017-12-05T17:30:00.479Z,5.80
2017-12-05T17:32:27.907Z,5.80
2017-12-05T17:34:56.779Z,5.80
2017-12-05T17:37:24.210Z,5.80
2017-12-05T17:39:51.656Z,5.70
2017-12-05T17:42:19.092Z,5.70
2017-12-05T17:44:46.537Z,5.60
2017-12-05T17:47:13.971Z,5.60
2017-12-05T17:49:42.192Z,5.60
2017-12-05T17:52:09.632Z,5.60
2017-12-05T17:54:37.071Z,5.50
2017-12-05T17:57:05.703Z,5.60
2017-12-05T17:59:33.450Z,5.60
2017-12-05T18:02:00.880Z,5.60
2017-12-05T18:04:29.081Z,5.60
2017-12-05T18:06:56.510Z,5.60
2017-12-05T18:09:23.948Z,5.70
2017-12-05T18:11:52.263Z,5.70
2017-12-05T18:14:19.695Z,5.60
2017-12-05T18:16:47.122Z,5.70
2017-12-05T18:19:14.560Z,5.70
2017-12-05T18:21:41.991Z,5.60
2017-12-05T18:24:09.431Z,5.60
2017-12-05T18:26:36.864Z,5.60
2017-12-05T18:29:05.100Z,5.60
2017-12-05T18:31:32.553Z,5.60
2017-12-05T18:33:59.984Z,5.50
2017-12-05T18:36:28.079Z,5.50
2017-12-05T18:38:55.523Z,5.50
2017-12-05T18:41:22.967Z,5.50
2017-12-05T18:43:50.447Z,5.60
2017-12-05T18:46:17.898Z,5.60
2017-12-05T18:48:45.340Z,5.70
2017-12-05T18:51:12.783Z,5.70
2017-12-05T18:53:40.216Z,5.70
2017-12-05T18:56:08.419Z,5.60
2017-12-05T18:58:35.908Z,5.60
2017-12-05T19:01:03.347Z,5.50
2017-12-05T19:03:30.783Z,5.50
2017-12-05T19:05:58.276Z,5.40
2017-12-05T19:08:26.447Z,5.30
2017-12-05T19:10:53.891Z,5.30
2017-12-05T19:13:21.325Z,5.30
2017-12-05T19:15:48.771Z,5.30
2017-12-05T19:18:16.979Z,5.40
2017-12-05T19:20:44.424Z,5.40
2017-12-05T19:23:11.866Z,5.50
2017-12-05T19:25:39.328Z,5.60
2017-12-05T19:28:06.762Z,5.60
2017-12-05T19:30:34.975Z,5.60
2017-12-05T19:33:02.419Z,5.60
2017-12-05T19:35:29.859Z,5.70
2017-12-05T19:37:57.298Z,5.70
2017-12-05T19:40:25.503Z,5.60
2017-12-05T19:42:52.942Z,5.70
2017-12-05T19:45:21.162Z,5.70
2017-12-05T19:47:48.598Z,5.70
2017-12-05T19:50:16.043Z,5.70
2017-12-05T19:52:43.482Z,5.80
2017-12-05T19:55:11.686Z,5.80
2017-12-05T19:57:39.136Z,5.80
2017-12-05T20:00:06.571Z,5.80
2017-12-05T20:02:34.785Z,5.90
2017-12-05T20:05:02.224Z,5.90
2017-12-05T20:07:29.663Z,5.90
2017-12-05T20:09:57.113Z,6.00
2017-12-05T20:12:25.322Z,5.90
2017-12-05T20:14:52.755Z,5.90
2017-12-05T20:17:20.205Z,5.90
2017-12-05T20:19:48.396Z,6.00
2017-12-05T20:22:15.846Z,6.00
2017-12-05T20:24:43.278Z,6.00
2017-12-05T20:27:10.720Z,6.00
2017-12-05T20:29:38.159Z,6.00
2017-12-05T20:32:05.607Z,6.00
2017-12-05T20:34:33.035Z,6.00
2017-12-05T20:37:00.462Z,6.10
2017-12-05T20:39:28.660Z,6.00
2017-12-05T20:41:56.087Z,6.00
2017-12-05T20:44:24.300Z,5.90
2017-12-05T20:46:51.735Z,5.90
2017-12-05T20:49:19.175Z,5.90
2017-12-05T20:51:47.376Z,5.90
2017-12-05T20:54:14.819Z,5.90
2017-12-05T20:56:42.254Z,6.00
2017-12-05T20:59:10.464Z,6.00
2017-12-05T21:01:37.915Z,6.00
2017-12-05T21:04:05.356Z,6.00
2017-12-05T21:06:33.564Z,6.00
2017-12-05T21:09:01.003Z,6.00
2017-12-05T21:11:28.434Z,6.00
2017-12-05T21:13:56.640Z,6.00
2017-12-05T21:16:24.079Z,6.00
2017-12-05T21:18:51.523Z,5.90
2017-12-05T21:21:19.731Z,6.00
2017-12-05T21:23:47.184Z,6.00
2017-12-05T21:26:14.624Z,6.00
2017-12-05T21:28:43.640Z,5.90
2017-12-05T21:31:11.079Z,5.90
2017-12-05T21:33:38.528Z,5.90
2017-12-05T21:36:05.963Z,5.90
2017-12-05T21:38:34.176Z,5.80
2017-12-05T21:41:01.612Z,5.80
2017-12-05T21:43:29.059Z,5.80
2017-12-05T21:45:57.264Z,5.80
2017-12-05T21:48:24.706Z,5.80
2017-12-05T21:50:52.148Z,5.80
2017-12-05T21:53:20.354Z,5.80
2017-12-05T21:55:47.791Z,5.80
2017-12-05T21:58:15.284Z,5.80
2017-12-05T22:00:42.729Z,5.80
2017-12-05T22:03:10.199Z,5.80
2017-12-05T22:05:38.159Z,5.80
2017-12-05T22:08:05.599Z,5.80
2017-12-05T22:10:33.047Z,5.80
2017-12-05T22:13:00.540Z,5.70
2017-12-05T22:15:28.016Z,5.70
2017-12-05T22:17:55.440Z,5.60
2017-12-05T22:20:22.892Z,5.60
2017-12-05T22:22:50.340Z,5.70
2017-12-05T22:25:17.796Z,5.70
2017-12-05T22:27:45.236Z,5.60
2017-12-05T22:30:12.676Z,5.60
2017-12-05T22:32:40.912Z,5.60
2017-12-05T22:35:08.350Z,5.60
2017-12-05T22:37:35.803Z,5.70
2017-12-05T22:40:04.098Z,5.70
2017-12-05T22:42:31.534Z,5.80
2017-12-05T22:44:58.979Z,5.80
2017-12-05T22:47:26.445Z,5.80
2017-12-05T22:49:53.871Z,5.80
2017-12-05T22:52:22.791Z,5.80
2017-12-05T22:54:50.239Z,5.80
2017-12-05T22:57:17.678Z,5.90
2017-12-05T22:59:45.871Z,5.90
2017-12-05T23:02:13.359Z,5.80
2017-12-05T23:04:40.811Z,5.80
2017-12-05T23:07:08.244Z,5.80
2017-12-05T23:09:35.683Z,5.80
2017-12-05T23:12:03.118Z,5.90
2017-12-05T23:14:31.336Z,5.90
2017-12-05T23:16:58.811Z,5.80
2017-12-05T23:19:26.245Z,5.80
2017-12-05T23:21:53.684Z,5.80
2017-12-05T23:24:21.118Z,5.80
2017-12-05T23:26:49.351Z,5.80
2017-12-05T23:29:16.783Z,5.80
2017-12-05T23:31:44.225Z,5.80
2017-12-05T23:34:11.651Z,5.90
2017-12-05T23:36:39.590Z,5.90
2017-12-05T23:39:07.019Z,5.90
2017-12-05T23:41:34.463Z,5.90
2017-12-05T23:44:02.655Z,6.00
2017-12-05T23:46:30.095Z,5.90
2017-12-05T23:48:57.536Z,5.90
2017-12-05T23:51:25.763Z,5.90
2017-12-05T23:53:53.200Z,5.90
2017-12-05T23:56:20.648Z,5.90
2017-12-05T23:58:48.075Z,5.80
